Oranjewijk, Netherlands
Current Conditions -  °F | °C
As of 4:55 PM on Saturday 25 Oct 2014 (Local Time) from EHRD Reporting Station
Clear Clear  
Wind Chill: 55°   Ceiling: Unl
Heat Index: 55°   Visibility: 6mi
Dew Point: 46°   Wind: 12mph
Humidity: 72%   Direction: 250°WSW
Pressure: 30.09"   Gusts: NA
Location:  52.05°N, 4.65°E
Report Text: EHRD 251455Z AUTO 25010KT 220V290 9999 NSC 13/08 Q1019 NOSIG
Loading
Personal Weather Stations






























Interactive Weather Map
Tropical Storm Tracking
New forecast layout! Learn more

10-Day Weather Forecast

Advertisements
Track Severe Weather on mobile